Search for airport 
image banner adimage banner adimage banner ad
image banner ad

5CN4 - Vosburgh Airfield

Located in Cuyama, United States

ICAO - 5CN4, IATA -

Data provided by Airmate  

General information

Coordinates: N34°55'25" W119°34'17"
Elevation is 2200 feet MSL.
 
View others Airports in California

Operational data

Special qualification required
Current time UTC:
Current local time:
Weather at : KIZA - Santa Ynez ( 58 km )
METAR: KIZA 291435Z AUTO 00000KT 1 3/4SM BR OVC001 12/12 A3000 RMK AO2
View NOTAMs / SUP AIP / TFR affecting this airport [VIEW]
Communications frequencies: [VIEW]

Runways:

RWY identifierQFULength (ft)Width (ft)SurfaceLDA (ft)
16260060EARTH
34260060EARTH

Airport contact information

Address: Cuyama United States

Satellite view of 5CN4